sensor_id;sensor_type;location;lat;lon;timestamp;temperature;humidity
6672;DHT22;3372;48.690;12.362;2023-07-13T00:01:12;21.60;64.30
6672;DHT22;3372;48.690;12.362;2023-07-13T00:03:38;21.60;64.10
6672;DHT22;3372;48.690;12.362;2023-07-13T00:06:06;21.60;63.60
6672;DHT22;3372;48.690;12.362;2023-07-13T00:08:32;21.70;62.40
6672;DHT22;3372;48.690;12.362;2023-07-13T00:10:58;21.60;65.20
6672;DHT22;3372;48.690;12.362;2023-07-13T00:13:24;21.60;64.50
6672;DHT22;3372;48.690;12.362;2023-07-13T00:15:49;21.60;62.70
6672;DHT22;3372;48.690;12.362;2023-07-13T00:18:15;21.60;63.60
6672;DHT22;3372;48.690;12.362;2023-07-13T00:20:40;21.60;65.40
6672;DHT22;3372;48.690;12.362;2023-07-13T00:23:07;21.50;65.10
6672;DHT22;3372;48.690;12.362;2023-07-13T00:25:32;21.60;64.00
6672;DHT22;3372;48.690;12.362;2023-07-13T00:27:58;21.50;65.50
6672;DHT22;3372;48.690;12.362;2023-07-13T00:30:23;21.50;65.10
6672;DHT22;3372;48.690;12.362;2023-07-13T00:32:49;21.50;66.60
6672;DHT22;3372;48.690;12.362;2023-07-13T00:35:15;21.40;67.30
6672;DHT22;3372;48.690;12.362;2023-07-13T00:37:41;21.40;66.40
6672;DHT22;3372;48.690;12.362;2023-07-13T00:40:08;21.40;65.90
6672;DHT22;3372;48.690;12.362;2023-07-13T00:42:35;21.50;65.40
6672;DHT22;3372;48.690;12.362;2023-07-13T00:47:40;21.60;66.00
6672;DHT22;3372;48.690;12.362;2023-07-13T00:50:08;21.50;64.50
6672;DHT22;3372;48.690;12.362;2023-07-13T00:52:37;21.60;64.50
6672;DHT22;3372;48.690;12.362;2023-07-13T00:55:04;21.60;65.70
6672;DHT22;3372;48.690;12.362;2023-07-13T00:57:29;21.50;64.90
6672;DHT22;3372;48.690;12.362;2023-07-13T00:59:59;21.50;64.40
6672;DHT22;3372;48.690;12.362;2023-07-13T01:02:26;21.50;64.20
6672;DHT22;3372;48.690;12.362;2023-07-13T01:04:52;21.60;65.40
6672;DHT22;3372;48.690;12.362;2023-07-13T01:07:18;21.50;64.70
6672;DHT22;3372;48.690;12.362;2023-07-13T01:09:44;21.50;65.90
6672;DHT22;3372;48.690;12.362;2023-07-13T01:12:11;21.50;65.50
6672;DHT22;3372;48.690;12.362;2023-07-13T01:14:36;21.50;66.60
6672;DHT22;3372;48.690;12.362;2023-07-13T01:17:02;21.40;65.70
6672;DHT22;3372;48.690;12.362;2023-07-13T01:19:43;21.50;65.70
6672;DHT22;3372;48.690;12.362;2023-07-13T01:22:15;21.50;67.20
6672;DHT22;3372;48.690;12.362;2023-07-13T01:24:43;21.50;66.70
6672;DHT22;3372;48.690;12.362;2023-07-13T01:27:11;21.50;67.80
6672;DHT22;3372;48.690;12.362;2023-07-13T01:29:38;21.40;66.20
6672;DHT22;3372;48.690;12.362;2023-07-13T01:32:08;21.50;66.40
6672;DHT22;3372;48.690;12.362;2023-07-13T01:34:34;21.50;68.00
6672;DHT22;3372;48.690;12.362;2023-07-13T01:37:00;21.50;66.90
6672;DHT22;3372;48.690;12.362;2023-07-13T01:39:25;21.50;66.30
6672;DHT22;3372;48.690;12.362;2023-07-13T01:41:51;21.40;67.40
6672;DHT22;3372;48.690;12.362;2023-07-13T01:44:17;21.50;67.70
6672;DHT22;3372;48.690;12.362;2023-07-13T01:46:42;21.40;68.50
6672;DHT22;3372;48.690;12.362;2023-07-13T01:49:08;21.40;68.70
6672;DHT22;3372;48.690;12.362;2023-07-13T01:51:33;21.40;70.40
6672;DHT22;3372;48.690;12.362;2023-07-13T01:53:59;21.30;70.70
6672;DHT22;3372;48.690;12.362;2023-07-13T01:56:24;21.20;71.30
6672;DHT22;3372;48.690;12.362;2023-07-13T01:58:50;21.30;70.70
6672;DHT22;3372;48.690;12.362;2023-07-13T02:01:16;21.30;73.30
6672;DHT22;3372;48.690;12.362;2023-07-13T02:03:41;21.20;73.30
6672;DHT22;3372;48.690;12.362;2023-07-13T02:06:07;21.30;74.20
6672;DHT22;3372;48.690;12.362;2023-07-13T02:08:33;21.30;75.00
6672;DHT22;3372;48.690;12.362;2023-07-13T02:10:58;21.30;74.20
6672;DHT22;3372;48.690;12.362;2023-07-13T02:13:24;21.30;72.90
6672;DHT22;3372;48.690;12.362;2023-07-13T02:15:51;21.40;73.00
6672;DHT22;3372;48.690;12.362;2023-07-13T02:18:16;21.30;76.00
6672;DHT22;3372;48.690;12.362;2023-07-13T02:20:42;21.30;76.20
6672;DHT22;3372;48.690;12.362;2023-07-13T02:23:08;21.40;75.20
6672;DHT22;3372;48.690;12.362;2023-07-13T02:25:34;21.40;74.20
6672;DHT22;3372;48.690;12.362;2023-07-13T02:27:59;21.40;74.00
6672;DHT22;3372;48.690;12.362;2023-07-13T02:30:25;21.40;76.10
6672;DHT22;3372;48.690;12.362;2023-07-13T02:32:50;21.40;75.50
6672;DHT22;3372;48.690;12.362;2023-07-13T02:35:17;21.30;76.80
6672;DHT22;3372;48.690;12.362;2023-07-13T02:37:42;21.40;76.70
6672;DHT22;3372;48.690;12.362;2023-07-13T02:40:08;21.40;76.90
6672;DHT22;3372;48.690;12.362;2023-07-13T02:42:34;21.40;77.10
6672;DHT22;3372;48.690;12.362;2023-07-13T02:45:00;21.40;77.90
6672;DHT22;3372;48.690;12.362;2023-07-13T02:47:25;21.30;76.40
6672;DHT22;3372;48.690;12.362;2023-07-13T02:49:52;21.30;78.20
6672;DHT22;3372;48.690;12.362;2023-07-13T02:52:18;21.30;77.90
6672;DHT22;3372;48.690;12.362;2023-07-13T02:54:43;21.40;78.00
6672;DHT22;3372;48.690;12.362;2023-07-13T02:57:09;21.30;77.80
6672;DHT22;3372;48.690;12.362;2023-07-13T02:59:35;21.30;80.30
6672;DHT22;3372;48.690;12.362;2023-07-13T03:02:02;21.20;80.70
6672;DHT22;3372;48.690;12.362;2023-07-13T03:04:27;21.30;79.30
6672;DHT22;3372;48.690;12.362;2023-07-13T03:06:53;21.30;77.80
6672;DHT22;3372;48.690;12.362;2023-07-13T03:09:24;21.30;80.30
6672;DHT22;3372;48.690;12.362;2023-07-13T03:11:51;21.30;79.60
6672;DHT22;3372;48.690;12.362;2023-07-13T03:14:17;21.30;79.10
6672;DHT22;3372;48.690;12.362;2023-07-13T03:16:42;21.40;79.70
6672;DHT22;3372;48.690;12.362;2023-07-13T03:19:08;21.40;78.30
6672;DHT22;3372;48.690;12.362;2023-07-13T03:21:34;21.40;78.70
6672;DHT22;3372;48.690;12.362;2023-07-13T03:23:59;21.40;80.80
6672;DHT22;3372;48.690;12.362;2023-07-13T03:26:25;21.40;80.00
6672;DHT22;3372;48.690;12.362;2023-07-13T03:28:51;21.20;84.20
6672;DHT22;3372;48.690;12.362;2023-07-13T03:31:21;21.20;82.40
6672;DHT22;3372;48.690;12.362;2023-07-13T03:33:48;21.20;83.90
6672;DHT22;3372;48.690;12.362;2023-07-13T03:36:19;21.20;83.90
6672;DHT22;3372;48.690;12.362;2023-07-13T03:38:51;21.30;84.00
6672;DHT22;3372;48.690;12.362;2023-07-13T03:41:17;21.40;83.60
6672;DHT22;3372;48.690;12.362;2023-07-13T03:43:43;21.30;83.70
6672;DHT22;3372;48.690;12.362;2023-07-13T03:46:09;21.20;86.20
6672;DHT22;3372;48.690;12.362;2023-07-13T03:48:34;21.20;85.60
6672;DHT22;3372;48.690;12.362;2023-07-13T03:51:01;21.20;86.20
6672;DHT22;3372;48.690;12.362;2023-07-13T03:53:26;21.20;87.60
6672;DHT22;3372;48.690;12.362;2023-07-13T03:55:52;21.00;89.90
6672;DHT22;3372;48.690;12.362;2023-07-13T04:00:55;21.20;89.70
6672;DHT22;3372;48.690;12.362;2023-07-13T04:03:21;21.20;86.40
6672;DHT22;3372;48.690;12.362;2023-07-13T04:05:46;21.30;87.20
6672;DHT22;3372;48.690;12.362;2023-07-13T04:08:12;21.30;86.70
6672;DHT22;3372;48.690;12.362;2023-07-13T04:10:38;21.10;88.80
6672;DHT22;3372;48.690;12.362;2023-07-13T04:13:04;21.20;88.10
6672;DHT22;3372;48.690;12.362;2023-07-13T04:15:31;21.10;89.00
6672;DHT22;3372;48.690;12.362;2023-07-13T04:17:57;21.10;90.90
6672;DHT22;3372;48.690;12.362;2023-07-13T04:20:23;21.10;90.60
6672;DHT22;3372;48.690;12.362;2023-07-13T04:22:49;21.20;90.50
6672;DHT22;3372;48.690;12.362;2023-07-13T04:25:15;21.20;90.20
6672;DHT22;3372;48.690;12.362;2023-07-13T04:27:41;21.20;90.30
6672;DHT22;3372;48.690;12.362;2023-07-13T04:30:07;21.20;90.30
6672;DHT22;3372;48.690;12.362;2023-07-13T04:32:32;21.30;89.00
6672;DHT22;3372;48.690;12.362;2023-07-13T04:34:58;21.40;89.30
6672;DHT22;3372;48.690;12.362;2023-07-13T04:37:25;21.30;87.40
6672;DHT22;3372;48.690;12.362;2023-07-13T04:39:50;21.00;90.50
6672;DHT22;3372;48.690;12.362;2023-07-13T04:42:16;21.10;90.20
6672;DHT22;3372;48.690;12.362;2023-07-13T04:44:42;21.10;90.00
6672;DHT22;3372;48.690;12.362;2023-07-13T04:47:07;21.20;88.60
6672;DHT22;3372;48.690;12.362;2023-07-13T04:49:33;21.20;87.00
6672;DHT22;3372;48.690;12.362;2023-07-13T04:51:58;21.10;89.10
6672;DHT22;3372;48.690;12.362;2023-07-13T04:54:24;21.10;89.20
6672;DHT22;3372;48.690;12.362;2023-07-13T04:56:49;21.10;88.40
6672;DHT22;3372;48.690;12.362;2023-07-13T04:59:15;21.20;87.60
6672;DHT22;3372;48.690;12.362;2023-07-13T05:01:41;21.20;87.50
6672;DHT22;3372;48.690;12.362;2023-07-13T05:04:06;21.20;87.50
6672;DHT22;3372;48.690;12.362;2023-07-13T05:06:32;21.30;86.00
6672;DHT22;3372;48.690;12.362;2023-07-13T05:08:58;21.30;86.20
6672;DHT22;3372;48.690;12.362;2023-07-13T05:11:24;21.30;85.10
6672;DHT22;3372;48.690;12.362;2023-07-13T05:13:49;21.40;85.90
6672;DHT22;3372;48.690;12.362;2023-07-13T05:16:15;21.40;84.00
6672;DHT22;3372;48.690;12.362;2023-07-13T05:18:41;21.20;85.80
6672;DHT22;3372;48.690;12.362;2023-07-13T05:21:08;21.00;86.80
6672;DHT22;3372;48.690;12.362;2023-07-13T05:23:35;21.00;86.30
6672;DHT22;3372;48.690;12.362;2023-07-13T05:26:02;20.90;86.40
6672;DHT22;3372;48.690;12.362;2023-07-13T05:28:29;21.00;88.50
6672;DHT22;3372;48.690;12.362;2023-07-13T05:30:55;21.00;87.50
6672;DHT22;3372;48.690;12.362;2023-07-13T05:33:21;21.00;87.90
6672;DHT22;3372;48.690;12.362;2023-07-13T05:35:47;21.00;87.40
6672;DHT22;3372;48.690;12.362;2023-07-13T05:38:12;20.80;89.30
6672;DHT22;3372;48.690;12.362;2023-07-13T05:40:38;21.00;87.60
6672;DHT22;3372;48.690;12.362;2023-07-13T05:43:04;20.90;89.00
6672;DHT22;3372;48.690;12.362;2023-07-13T05:45:29;21.10;88.30
6672;DHT22;3372;48.690;12.362;2023-07-13T05:47:55;20.90;88.90
6672;DHT22;3372;48.690;12.362;2023-07-13T05:50:20;21.00;88.70
6672;DHT22;3372;48.690;12.362;2023-07-13T05:52:46;20.80;88.00
6672;DHT22;3372;48.690;12.362;2023-07-13T05:55:12;20.90;87.00
6672;DHT22;3372;48.690;12.362;2023-07-13T05:57:38;20.80;86.10
6672;DHT22;3372;48.690;12.362;2023-07-13T06:00:04;20.90;85.30
6672;DHT22;3372;48.690;12.362;2023-07-13T06:02:30;21.00;85.40
6672;DHT22;3372;48.690;12.362;2023-07-13T06:04:55;21.10;84.60
6672;DHT22;3372;48.690;12.362;2023-07-13T06:07:21;21.20;82.70
6672;DHT22;3372;48.690;12.362;2023-07-13T06:09:46;21.10;83.20
6672;DHT22;3372;48.690;12.362;2023-07-13T06:12:12;21.20;82.70
6672;DHT22;3372;48.690;12.362;2023-07-13T06:14:37;21.40;80.00
6672;DHT22;3372;48.690;12.362;2023-07-13T06:17:03;21.40;79.30
6672;DHT22;3372;48.690;12.362;2023-07-13T06:19:29;21.50;77.80
6672;DHT22;3372;48.690;12.362;2023-07-13T06:21:54;21.20;75.60
6672;DHT22;3372;48.690;12.362;2023-07-13T06:24:20;21.40;75.80
6672;DHT22;3372;48.690;12.362;2023-07-13T06:26:45;21.40;75.20
6672;DHT22;3372;48.690;12.362;2023-07-13T06:29:11;21.40;74.60
6672;DHT22;3372;48.690;12.362;2023-07-13T06:31:36;21.50;74.30
6672;DHT22;3372;48.690;12.362;2023-07-13T06:34:02;21.40;71.90
6672;DHT22;3372;48.690;12.362;2023-07-13T06:36:28;21.40;72.50
6672;DHT22;3372;48.690;12.362;2023-07-13T06:38:53;21.50;71.70
6672;DHT22;3372;48.690;12.362;2023-07-13T06:41:19;21.50;69.80
6672;DHT22;3372;48.690;12.362;2023-07-13T06:43:45;21.50;68.70
6672;DHT22;3372;48.690;12.362;2023-07-13T06:46:11;21.40;69.20
6672;DHT22;3372;48.690;12.362;2023-07-13T06:48:36;21.10;69.40
6672;DHT22;3372;48.690;12.362;2023-07-13T06:51:02;21.50;68.50
6672;DHT22;3372;48.690;12.362;2023-07-13T06:53:27;21.50;67.30
6672;DHT22;3372;48.690;12.362;2023-07-13T06:55:53;21.50;65.90
6672;DHT22;3372;48.690;12.362;2023-07-13T06:58:19;21.70;64.90
6672;DHT22;3372;48.690;12.362;2023-07-13T07:00:45;21.80;60.40
6672;DHT22;3372;48.690;12.362;2023-07-13T07:03:11;22.20;62.80
6672;DHT22;3372;48.690;12.362;2023-07-13T07:05:36;22.20;59.00
6672;DHT22;3372;48.690;12.362;2023-07-13T07:08:03;22.20;58.00
6672;DHT22;3372;48.690;12.362;2023-07-13T07:10:30;22.40;56.10
6672;DHT22;3372;48.690;12.362;2023-07-13T07:12:56;22.60;50.60
6672;DHT22;3372;48.690;12.362;2023-07-13T07:15:21;22.90;51.80
6672;DHT22;3372;48.690;12.362;2023-07-13T07:17:47;23.20;48.20
6672;DHT22;3372;48.690;12.362;2023-07-13T07:20:12;23.60;45.60
6672;DHT22;3372;48.690;12.362;2023-07-13T07:22:38;23.80;48.00
6672;DHT22;3372;48.690;12.362;2023-07-13T07:25:04;24.30;46.00
6672;DHT22;3372;48.690;12.362;2023-07-13T07:27:29;24.00;40.60
6672;DHT22;3372;48.690;12.362;2023-07-13T07:29:55;24.00;40.60
6672;DHT22;3372;48.690;12.362;2023-07-13T07:32:22;23.90;40.90
6672;DHT22;3372;48.690;12.362;2023-07-13T07:34:48;24.00;37.90
6672;DHT22;3372;48.690;12.362;2023-07-13T07:37:14;23.80;37.80
6672;DHT22;3372;48.690;12.362;2023-07-13T07:39:39;23.80;37.70
6672;DHT22;3372;48.690;12.362;2023-07-13T07:42:05;24.00;39.00
6672;DHT22;3372;48.690;12.362;2023-07-13T07:44:31;23.90;35.50
6672;DHT22;3372;48.690;12.362;2023-07-13T07:46:58;24.10;35.40
6672;DHT22;3372;48.690;12.362;2023-07-13T07:49:23;23.70;33.50
6672;DHT22;3372;48.690;12.362;2023-07-13T07:51:49;23.70;29.60
6672;DHT22;3372;48.690;12.362;2023-07-13T07:54:15;23.70;30.50
6672;DHT22;3372;48.690;12.362;2023-07-13T07:56:40;23.70;32.30
6672;DHT22;3372;48.690;12.362;2023-07-13T07:59:06;23.70;33.30
6672;DHT22;3372;48.690;12.362;2023-07-13T08:01:31;23.60;31.60
6672;DHT22;3372;48.690;12.362;2023-07-13T08:03:57;23.70;33.50
6672;DHT22;3372;48.690;12.362;2023-07-13T08:06:23;24.20;35.80
6672;DHT22;3372;48.690;12.362;2023-07-13T08:08:49;24.70;32.20
6672;DHT22;3372;48.690;12.362;2023-07-13T08:11:15;25.00;25.00
6672;DHT22;3372;48.690;12.362;2023-07-13T08:13:41;25.50;27.00
6672;DHT22;3372;48.690;12.362;2023-07-13T08:16:07;25.70;25.60
6672;DHT22;3372;48.690;12.362;2023-07-13T08:18:32;25.30;23.40
6672;DHT22;3372;48.690;12.362;2023-07-13T08:20:58;25.00;24.30
6672;DHT22;3372;48.690;12.362;2023-07-13T08:23:25;25.00;22.00
6672;DHT22;3372;48.690;12.362;2023-07-13T08:25:52;25.00;21.80
6672;DHT22;3372;48.690;12.362;2023-07-13T08:28:21;24.90;22.70
6672;DHT22;3372;48.690;12.362;2023-07-13T08:30:47;25.30;24.60
6672;DHT22;3372;48.690;12.362;2023-07-13T08:33:20;25.80;24.50
6672;DHT22;3372;48.690;12.362;2023-07-13T08:35:47;26.30;22.40
6672;DHT22;3372;48.690;12.362;2023-07-13T08:38:13;26.70;19.60
6672;DHT22;3372;48.690;12.362;2023-07-13T08:40:39;26.80;20.40
6672;DHT22;3372;48.690;12.362;2023-07-13T08:43:20;25.60;16.10
6672;DHT22;3372;48.690;12.362;2023-07-13T08:46:20;25.20;19.80
6672;DHT22;3372;48.690;12.362;2023-07-13T08:49:09;24.90;22.30
6672;DHT22;3372;48.690;12.362;2023-07-13T08:51:45;25.10;22.00
6672;DHT22;3372;48.690;12.362;2023-07-13T08:54:43;24.50;20.80
6672;DHT22;3372;48.690;12.362;2023-07-13T08:57:21;24.40;25.00
6672;DHT22;3372;48.690;12.362;2023-07-13T08:59:48;24.30;21.90
6672;DHT22;3372;48.690;12.362;2023-07-13T09:04:50;24.20;21.90
6672;DHT22;3372;48.690;12.362;2023-07-13T09:07:34;24.20;23.90
6672;DHT22;3372;48.690;12.362;2023-07-13T09:13:05;24.10;24.00
6672;DHT22;3372;48.690;12.362;2023-07-13T09:15:38;24.00;24.90
6672;DHT22;3372;48.690;12.362;2023-07-13T09:18:25;23.80;26.00
6672;DHT22;3372;48.690;12.362;2023-07-13T09:20:57;23.80;24.90
6672;DHT22;3372;48.690;12.362;2023-07-13T09:23:27;23.40;24.80
6672;DHT22;3372;48.690;12.362;2023-07-13T09:26:06;23.40;25.40
6672;DHT22;3372;48.690;12.362;2023-07-13T09:28:39;23.50;27.50
6672;DHT22;3372;48.690;12.362;2023-07-13T09:31:17;23.40;26.30
6672;DHT22;3372;48.690;12.362;2023-07-13T09:33:44;23.30;26.00
6672;DHT22;3372;48.690;12.362;2023-07-13T09:36:31;23.30;27.00
6672;DHT22;3372;48.690;12.362;2023-07-13T09:39:36;23.30;27.70
6672;DHT22;3372;48.690;12.362;2023-07-13T09:42:18;23.10;30.40
6672;DHT22;3372;48.690;12.362;2023-07-13T09:44:58;22.60;30.90
6672;DHT22;3372;48.690;12.362;2023-07-13T09:47:25;22.60;32.70
6672;DHT22;3372;48.690;12.362;2023-07-13T09:50:00;22.30;34.40
6672;DHT22;3372;48.690;12.362;2023-07-13T09:52:28;22.20;36.50
6672;DHT22;3372;48.690;12.362;2023-07-13T09:55:04;22.20;35.50
6672;DHT22;3372;48.690;12.362;2023-07-13T09:57:30;22.30;37.90
6672;DHT22;3372;48.690;12.362;2023-07-13T09:59:56;22.40;38.10
6672;DHT22;3372;48.690;12.362;2023-07-13T10:05:00;22.50;36.30
6672;DHT22;3372;48.690;12.362;2023-07-13T10:07:26;22.60;37.30
6672;DHT22;3372;48.690;12.362;2023-07-13T10:09:54;22.60;34.90
6672;DHT22;3372;48.690;12.362;2023-07-13T10:12:20;22.60;33.50
6672;DHT22;3372;48.690;12.362;2023-07-13T10:14:50;22.60;31.80
6672;DHT22;3372;48.690;12.362;2023-07-13T10:17:19;22.80;32.00
6672;DHT22;3372;48.690;12.362;2023-07-13T10:19:49;22.80;30.00
6672;DHT22;3372;48.690;12.362;2023-07-13T10:25:25;23.00;28.20
6672;DHT22;3372;48.690;12.362;2023-07-13T10:27:53;23.10;30.00
6672;DHT22;3372;48.690;12.362;2023-07-13T10:30:30;23.40;29.10
6672;DHT22;3372;48.690;12.362;2023-07-13T10:33:02;23.70;27.50
6672;DHT22;3372;48.690;12.362;2023-07-13T10:35:30;24.00;26.00
6672;DHT22;3372;48.690;12.362;2023-07-13T10:38:10;24.40;26.50
6672;DHT22;3372;48.690;12.362;2023-07-13T10:40:39;24.40;26.10
6672;DHT22;3372;48.690;12.362;2023-07-13T10:43:14;24.70;25.50
6672;DHT22;3372;48.690;12.362;2023-07-13T10:45:45;24.60;21.40
6672;DHT22;3372;48.690;12.362;2023-07-13T10:48:13;24.80;22.10
6672;DHT22;3372;48.690;12.362;2023-07-13T10:50:42;24.60;20.90
6672;DHT22;3372;48.690;12.362;2023-07-13T10:53:38;24.70;22.80
6672;DHT22;3372;48.690;12.362;2023-07-13T10:56:22;25.00;21.40
6672;DHT22;3372;48.690;12.362;2023-07-13T10:59:11;25.10;22.90
6672;DHT22;3372;48.690;12.362;2023-07-13T11:02:42;25.30;22.00
6672;DHT22;3372;48.690;12.362;2023-07-13T11:04:47;25.10;19.50
6672;DHT22;3372;48.690;12.362;2023-07-13T11:07:29;25.50;20.00
6672;DHT22;3372;48.690;12.362;2023-07-13T11:10:00;25.30;16.00
6672;DHT22;3372;48.690;12.362;2023-07-13T11:12:53;25.30;14.50
6672;DHT22;3372;48.690;12.362;2023-07-13T11:15:43;25.20;16.30
6672;DHT22;3372;48.690;12.362;2023-07-13T11:18:23;25.20;15.50
6672;DHT22;3372;48.690;12.362;2023-07-13T11:20:50;25.40;17.20
6672;DHT22;3372;48.690;12.362;2023-07-13T11:25:42;25.50;13.70
6672;DHT22;3372;48.690;12.362;2023-07-13T11:28:14;25.60;15.10
6672;DHT22;3372;48.690;12.362;2023-07-13T11:30:59;25.60;11.30
6672;DHT22;3372;48.690;12.362;2023-07-13T11:36:17;25.70;13.60
6672;DHT22;3372;48.690;12.362;2023-07-13T11:41:50;25.90;12.20
6672;DHT22;3372;48.690;12.362;2023-07-13T11:44:21;26.00;11.60
6672;DHT22;3372;48.690;12.362;2023-07-13T11:46:59;26.00;11.60
6672;DHT22;3372;48.690;12.362;2023-07-13T11:49:28;25.70;11.10
6672;DHT22;3372;48.690;12.362;2023-07-13T11:51:55;25.90;11.00
6672;DHT22;3372;48.690;12.362;2023-07-13T11:54:33;25.90;10.30
6672;DHT22;3372;48.690;12.362;2023-07-13T11:57:26;25.60;9.80
6672;DHT22;3372;48.690;12.362;2023-07-13T11:59:54;25.60;11.30
6672;DHT22;3372;48.690;12.362;2023-07-13T12:02:33;25.70;10.20
6672;DHT22;3372;48.690;12.362;2023-07-13T12:05:00;25.70;9.60
6672;DHT22;3372;48.690;12.362;2023-07-13T12:07:29;25.50;9.30
6672;DHT22;3372;48.690;12.362;2023-07-13T12:10:03;25.50;10.80
6672;DHT22;3372;48.690;12.362;2023-07-13T12:12:36;25.60;8.10
6672;DHT22;3372;48.690;12.362;2023-07-13T12:15:06;25.80;9.70
6672;DHT22;3372;48.690;12.362;2023-07-13T12:17:34;25.80;9.90
6672;DHT22;3372;48.690;12.362;2023-07-13T12:20:03;25.70;9.20
6672;DHT22;3372;48.690;12.362;2023-07-13T12:22:32;25.90;10.40
6672;DHT22;3372;48.690;12.362;2023-07-13T12:24:59;25.70;9.60
6672;DHT22;3372;48.690;12.362;2023-07-13T12:27:26;25.40;9.20
6672;DHT22;3372;48.690;12.362;2023-07-13T12:29:58;25.60;8.20
6672;DHT22;3372;48.690;12.362;2023-07-13T12:32:25;25.70;8.90
6672;DHT22;3372;48.690;12.362;2023-07-13T12:34:56;25.80;9.00
6672;DHT22;3372;48.690;12.362;2023-07-13T12:37:23;25.90;9.30
6672;DHT22;3372;48.690;12.362;2023-07-13T12:39:49;25.70;7.40
6672;DHT22;3372;48.690;12.362;2023-07-13T12:42:24;25.70;9.80
6672;DHT22;3372;48.690;12.362;2023-07-13T12:45:40;25.70;8.70
6672;DHT22;3372;48.690;12.362;2023-07-13T12:47:41;25.50;8.90
6672;DHT22;3372;48.690;12.362;2023-07-13T12:50:18;25.40;9.40
6672;DHT22;3372;48.690;12.362;2023-07-13T12:52:44;25.40;9.00
6672;DHT22;3372;48.690;12.362;2023-07-13T12:55:18;25.60;10.00
6672;DHT22;3372;48.690;12.362;2023-07-13T12:57:52;25.80;9.70
6672;DHT22;3372;48.690;12.362;2023-07-13T13:00:36;25.70;7.60
6672;DHT22;3372;48.690;12.362;2023-07-13T13:03:18;25.70;7.80
6672;DHT22;3372;48.690;12.362;2023-07-13T13:05:46;25.80;9.20
6672;DHT22;3372;48.690;12.362;2023-07-13T13:08:12;25.90;9.10
6672;DHT22;3372;48.690;12.362;2023-07-13T13:10:39;25.90;8.70
6672;DHT22;3372;48.690;12.362;2023-07-13T13:13:05;26.00;9.80
6672;DHT22;3372;48.690;12.362;2023-07-13T13:15:31;26.20;8.00
6672;DHT22;3372;48.690;12.362;2023-07-13T13:17:56;26.00;7.10
6672;DHT22;3372;48.690;12.362;2023-07-13T13:20:24;25.90;8.70
6672;DHT22;3372;48.690;12.362;2023-07-13T13:22:51;25.90;8.80
6672;DHT22;3372;48.690;12.362;2023-07-13T13:25:17;25.80;9.40
6672;DHT22;3372;48.690;12.362;2023-07-13T13:27:43;25.50;7.40
6672;DHT22;3372;48.690;12.362;2023-07-13T13:30:14;25.40;6.70
6672;DHT22;3372;48.690;12.362;2023-07-13T13:32:41;25.70;9.60
6672;DHT22;3372;48.690;12.362;2023-07-13T13:35:17;25.90;8.10
6672;DHT22;3372;48.690;12.362;2023-07-13T13:37:43;25.70;6.40
6672;DHT22;3372;48.690;12.362;2023-07-13T13:40:17;25.70;7.90
6672;DHT22;3372;48.690;12.362;2023-07-13T13:42:43;26.00;8.50
6672;DHT22;3372;48.690;12.362;2023-07-13T13:45:12;26.10;7.70
6672;DHT22;3372;48.690;12.362;2023-07-13T13:47:39;26.20;6.70
6672;DHT22;3372;48.690;12.362;2023-07-13T13:50:25;26.20;6.50
6672;DHT22;3372;48.690;12.362;2023-07-13T13:52:51;25.60;6.10
6672;DHT22;3372;48.690;12.362;2023-07-13T13:55:21;25.60;8.10
6672;DHT22;3372;48.690;12.362;2023-07-13T13:57:48;25.60;7.90
6672;DHT22;3372;48.690;12.362;2023-07-13T14:00:16;25.70;8.50
6672;DHT22;3372;48.690;12.362;2023-07-13T14:02:45;26.00;7.40
6672;DHT22;3372;48.690;12.362;2023-07-13T14:05:20;26.20;8.10
6672;DHT22;3372;48.690;12.362;2023-07-13T14:07:46;26.30;7.80
6672;DHT22;3372;48.690;12.362;2023-07-13T14:10:17;26.20;7.40
6672;DHT22;3372;48.690;12.362;2023-07-13T14:12:44;26.20;6.90
6672;DHT22;3372;48.690;12.362;2023-07-13T14:15:22;26.20;7.10
6672;DHT22;3372;48.690;12.362;2023-07-13T14:17:48;26.40;6.10
6672;DHT22;3372;48.690;12.362;2023-07-13T14:20:18;26.60;6.90
6672;DHT22;3372;48.690;12.362;2023-07-13T14:22:44;26.70;6.70
6672;DHT22;3372;48.690;12.362;2023-07-13T14:25:15;26.80;5.90
6672;DHT22;3372;48.690;12.362;2023-07-13T14:27:41;26.90;6.70
6672;DHT22;3372;48.690;12.362;2023-07-13T14:30:20;26.80;5.10
6672;DHT22;3372;48.690;12.362;2023-07-13T14:32:46;26.90;5.10
6672;DHT22;3372;48.690;12.362;2023-07-13T14:35:13;26.80;4.70
6672;DHT22;3372;48.690;12.362;2023-07-13T14:37:40;27.00;5.20
6672;DHT22;3372;48.690;12.362;2023-07-13T14:40:13;27.10;3.60
6672;DHT22;3372;48.690;12.362;2023-07-13T14:42:39;26.80;2.50
6672;DHT22;3372;48.690;12.362;2023-07-13T14:45:05;26.40;4.80
6672;DHT22;3372;48.690;12.362;2023-07-13T14:47:31;26.50;5.60
6672;DHT22;3372;48.690;12.362;2023-07-13T14:49:57;26.60;5.00
6672;DHT22;3372;48.690;12.362;2023-07-13T14:52:23;26.60;4.40
6672;DHT22;3372;48.690;12.362;2023-07-13T14:54:50;26.20;3.30
6672;DHT22;3372;48.690;12.362;2023-07-13T14:57:17;26.40;4.50
6672;DHT22;3372;48.690;12.362;2023-07-13T14:59:47;26.70;4.80
6672;DHT22;3372;48.690;12.362;2023-07-13T15:02:21;26.90;4.10
6672;DHT22;3372;48.690;12.362;2023-07-13T15:04:49;27.00;1.40
6672;DHT22;3372;48.690;12.362;2023-07-13T15:07:15;26.80;3.90
6672;DHT22;3372;48.690;12.362;2023-07-13T15:09:42;26.60;3.20
6672;DHT22;3372;48.690;12.362;2023-07-13T15:12:08;26.40;2.30
6672;DHT22;3372;48.690;12.362;2023-07-13T15:14:34;26.30;3.60
6672;DHT22;3372;48.690;12.362;2023-07-13T15:16:59;26.10;4.60
6672;DHT22;3372;48.690;12.362;2023-07-13T15:19:25;26.00;3.00
6672;DHT22;3372;48.690;12.362;2023-07-13T15:21:52;25.90;3.90
6672;DHT22;3372;48.690;12.362;2023-07-13T15:24:20;26.10;3.50
6672;DHT22;3372;48.690;12.362;2023-07-13T15:26:46;25.90;2.30
6672;DHT22;3372;48.690;12.362;2023-07-13T15:29:14;25.90;3.30
6672;DHT22;3372;48.690;12.362;2023-07-13T15:31:40;26.10;4.10
6672;DHT22;3372;48.690;12.362;2023-07-13T15:34:18;26.40;3.80
6672;DHT22;3372;48.690;12.362;2023-07-13T15:36:46;26.70;3.60
6672;DHT22;3372;48.690;12.362;2023-07-13T15:39:16;26.40;1.60
6672;DHT22;3372;48.690;12.362;2023-07-13T15:41:42;26.60;3.80
6672;DHT22;3372;48.690;12.362;2023-07-13T15:44:29;26.70;2.60
6672;DHT22;3372;48.690;12.362;2023-07-13T15:46:56;26.70;2.40
6672;DHT22;3372;48.690;12.362;2023-07-13T15:49:22;26.50;1.00
6672;DHT22;3372;48.690;12.362;2023-07-13T15:51:48;26.60;2.20
6672;DHT22;3372;48.690;12.362;2023-07-13T15:54:16;26.60;1.10
6672;DHT22;3372;48.690;12.362;2023-07-13T15:56:42;26.70;1.50
6672;DHT22;3372;48.690;12.362;2023-07-13T15:59:11;26.50;1.30
6672;DHT22;3372;48.690;12.362;2023-07-13T16:01:40;26.40;1.70
6672;DHT22;3372;48.690;12.362;2023-07-13T16:04:07;26.30;1.90
6672;DHT22;3372;48.690;12.362;2023-07-13T16:06:35;26.40;2.40
6672;DHT22;3372;48.690;12.362;2023-07-13T16:09:02;26.10;1.70
6672;DHT22;3372;48.690;12.362;2023-07-13T16:11:35;26.00;1.40
6672;DHT22;3372;48.690;12.362;2023-07-13T16:14:01;26.00;2.70
6672;DHT22;3372;48.690;12.362;2023-07-13T16:16:29;26.10;1.40
6672;DHT22;3372;48.690;12.362;2023-07-13T16:18:56;26.40;2.60
6672;DHT22;3372;48.690;12.362;2023-07-13T16:21:38;26.40;2.20
6672;DHT22;3372;48.690;12.362;2023-07-13T16:24:16;26.50;1.00